Time;durP1;ratioP1;P1;durP2;ratioP2;P2;SDS_P1;SDS_P2;PMS_P1;PMS_P2;Temp;Humidity;BMP_temperature;BMP_pressure;BME280_temperature;BME280_humidity;BME280_pressure;Samples;Min_cycle;Max_cycle;Signal;HPM_P1;HPM_P2
2024/01/22 00:01:49;;;;;;;64.55;23.38;;;;;;;-5.23;100.00;100460.03;4500509;31;20104;-75
2024/01/22 00:04:17;;;;;;;50.28;22.62;;;;;;;-5.25;100.00;100455.78;4500562;31;20418;-75
2024/01/22 00:06:45;;;;;;;55.17;22.65;;;;;;;-5.25;100.00;100454.09;4500682;31;20089;-75
2024/01/22 00:09:12;;;;;;;55.65;23.25;;;;;;;-5.24;100.00;100442.16;4500512;31;20119;-75
2024/01/22 00:11:40;;;;;;;59.85;23.70;;;;;;;-5.28;100.00;100441.31;4500308;31;20096;-75
2024/01/22 00:14:08;;;;;;;56.30;23.65;;;;;;;-5.38;100.00;100442.12;4500539;31;20107;-75
2024/01/22 00:16:39;;;;;;;57.47;21.17;;;;;;;-5.43;100.00;100443.81;4500641;31;20168;-75
2024/01/22 00:19:07;;;;;;;53.28;22.05;;;;;;;-5.37;100.00;100441.28;4491098;31;20104;-76
2024/01/22 00:21:40;;;;;;;60.80;21.65;;;;;;;-5.40;100.00;100429.34;4482894;32;20441;-75
2024/01/22 00:24:09;;;;;;;51.70;21.52;;;;;;;-5.45;100.00;100438.72;4484621;31;20103;-76
2024/01/22 00:26:39;;;;;;;54.17;22.33;;;;;;;-5.44;100.00;100437.00;4484401;31;20097;-76
2024/01/22 00:29:07;;;;;;;51.13;21.10;;;;;;;-5.39;100.00;100433.63;4484594;32;20148;-76
2024/01/22 00:31:35;;;;;;;49.03;22.25;;;;;;;-5.36;100.00;100432.75;4499297;31;20118;-75
2024/01/22 00:34:03;;;;;;;52.13;21.65;;;;;;;-5.32;100.00;100438.75;4500117;31;20076;-76
2024/01/22 00:36:31;;;;;;;50.72;19.45;;;;;;;-5.23;100.00;100428.53;4500071;31;20449;-75
2024/01/22 00:38:59;;;;;;;65.30;20.90;;;;;;;-5.24;100.00;100439.59;4500160;31;20151;-76
2024/01/22 00:41:27;;;;;;;54.78;21.48;;;;;;;-5.37;100.00;100436.16;4500179;31;20545;-75
2024/01/22 00:43:54;;;;;;;46.42;20.70;;;;;;;-5.44;100.00;100425.06;4500103;31;20608;-75
2024/01/22 00:46:22;;;;;;;64.55;22.98;;;;;;;-5.49;100.00;100420.81;4499756;31;20088;-76
2024/01/22 00:48:49;;;;;;;53.72;22.15;;;;;;;-5.45;100.00;100417.41;4500293;31;20096;-76
2024/01/22 00:51:18;;;;;;;54.03;19.75;;;;;;;-5.50;100.00;100417.41;4503298;31;20114;-75
2024/01/22 00:53:46;;;;;;;54.42;22.27;;;;;;;-5.51;100.00;100413.16;4505529;31;20114;-76
2024/01/22 00:56:14;;;;;;;55.20;21.50;;;;;;;-5.53;100.00;100405.50;4505278;31;20135;-75
2024/01/22 00:58:41;;;;;;;50.08;21.42;;;;;;;-5.51;100.00;100402.94;4505245;31;20167;-76
2024/01/22 01:01:09;;;;;;;53.38;20.67;;;;;;;-5.56;100.00;100399.50;4505081;31;20096;-76
2024/01/22 01:03:37;;;;;;;53.72;20.85;;;;;;;-5.57;100.00;100398.66;4505168;31;20088;-76
2024/01/22 01:06:04;;;;;;;57.47;22.98;;;;;;;-5.52;100.00;100396.97;4505362;31;20156;-76
2024/01/22 01:08:34;;;;;;;58.67;22.25;;;;;;;-5.54;100.00;100403.78;4504889;31;20140;-76
2024/01/22 01:11:01;;;;;;;47.72;21.23;;;;;;;-5.59;100.00;100399.50;4504944;31;20113;-76
2024/01/22 01:13:29;;;;;;;45.38;21.05;;;;;;;-5.64;100.00;100402.03;4504872;31;20096;-76
2024/01/22 01:15:58;;;;;;;55.58;20.88;;;;;;;-5.69;100.00;100403.72;4505007;31;20116;-76
2024/01/22 01:18:25;;;;;;;49.45;21.40;;;;;;;-5.68;100.00;100410.53;4499785;31;20122;-76
2024/01/22 01:20:53;;;;;;;60.03;22.10;;;;;;;-5.74;100.00;100405.41;4489074;32;20598;-76
2024/01/22 01:23:21;;;;;;;56.25;21.73;;;;;;;-5.81;100.00;100398.56;4488833;31;20156;-76
2024/01/22 01:25:48;;;;;;;59.47;21.52;;;;;;;-5.83;100.00;100400.25;4489216;32;20150;-76
2024/01/22 01:28:16;;;;;;;56.78;21.42;;;;;;;-5.90;100.00;100390.03;4488828;31;20100;-76
2024/01/22 01:30:43;;;;;;;56.75;20.52;;;;;;;-5.89;100.00;100386.66;4487486;32;20153;-76
2024/01/22 01:33:11;;;;;;;59.72;22.62;;;;;;;-5.97;100.00;100393.44;4489087;31;20148;-76
2024/01/22 01:35:39;;;;;;;53.53;22.73;;;;;;;-5.84;100.00;100383.22;4488516;31;20108;-76
2024/01/22 01:38:07;;;;;;;46.60;21.25;;;;;;;-5.81;100.00;100379.00;4488691;31;20496;-76
2024/01/22 01:40:35;;;;;;;44.63;19.87;;;;;;;-6.03;100.00;100380.66;4488761;31;20092;-76
2024/01/22 01:43:02;;;;;;;50.47;18.65;;;;;;;-6.11;100.00;100387.44;4488545;31;20486;-76
2024/01/22 01:45:30;;;;;;;48.75;18.20;;;;;;;-6.05;100.00;100386.63;4488642;31;20165;-76
2024/01/22 01:47:58;;;;;;;38.42;17.75;;;;;;;-5.91;100.00;100383.22;4488809;31;20128;-76
2024/01/22 01:50:26;;;;;;;46.83;18.90;;;;;;;-5.89;100.00;100381.53;4488950;31;20476;-76
2024/01/22 01:52:54;;;;;;;52.40;20.88;;;;;;;-5.90;100.00;100369.63;4488422;31;20088;-76
2024/01/22 01:55:22;;;;;;;50.17;19.55;;;;;;;-5.92;100.00;100370.44;4489037;31;20123;-76
2024/01/22 01:57:49;;;;;;;49.15;20.67;;;;;;;-5.89;100.00;100375.56;4488492;31;20138;-76
2024/01/22 02:00:29;;;;;;;46.00;18.15;;;;;;;-5.85;100.00;100377.28;4487698;32;20103;-76
2024/01/22 02:02:57;;;;;;;58.15;20.40;;;;;;;-5.92;100.00;100373.88;4484381;32;20093;-76
2024/01/22 02:05:25;;;;;;;48.95;18.87;;;;;;;-6.00;100.00;100379.81;4485684;31;20088;-76
2024/01/22 02:07:52;;;;;;;49.88;20.02;;;;;;;-6.06;100.00;100383.19;4485675;31;20088;-76
2024/01/22 02:10:20;;;;;;;53.40;20.45;;;;;;;-6.09;100.00;100378.06;4486099;31;20100;-76
2024/01/22 02:12:48;;;;;;;56.58;20.33;;;;;;;-6.17;100.00;100380.59;4485421;32;20100;-76
2024/01/22 02:15:15;;;;;;;57.33;22.77;;;;;;;-6.31;100.00;100372.03;4485681;31;20096;-76
2024/01/22 02:17:45;;;;;;;51.95;20.75;;;;;;;-6.34;100.00;100377.09;4485975;31;20137;-76
2024/01/22 02:20:13;;;;;;;60.97;21.73;;;;;;;-6.34;100.00;100370.31;4501523;31;20096;-76
2024/01/22 02:22:41;;;;;;;57.30;21.05;;;;;;;-6.35;100.00;100378.78;4501308;31;20152;-76
2024/01/22 02:25:08;;;;;;;59.55;22.15;;;;;;;-6.36;100.00;100373.69;4501226;31;20506;-76
2024/01/22 02:27:36;;;;;;;43.63;18.02;;;;;;;-6.31;100.00;100370.31;4501164;31;20112;-76
2024/01/22 02:30:05;;;;;;;52.40;19.00;;;;;;;-6.32;100.00;100360.13;4496437;31;20480;-76
2024/01/22 02:32:32;;;;;;;53.17;21.77;;;;;;;-6.17;100.00;100359.34;4485395;31;20434;-76
2024/01/22 02:35:06;;;;;;;46.50;21.12;;;;;;;-6.12;100.00;100348.28;4485476;31;20089;-76
2024/01/22 02:37:35;;;;;;;44.28;18.33;;;;;;;-5.95;100.00;100345.78;4485514;32;20433;-76
2024/01/22 02:40:03;;;;;;;59.08;21.62;;;;;;;-5.98;100.00;100339.84;4484177;32;20099;-76
2024/01/22 02:42:34;;;;;;;49.10;21.55;;;;;;;-6.16;100.00;100343.16;4485318;31;20155;-76
2024/01/22 02:45:02;;;;;;;48.17;21.77;;;;;;;-6.12;100.00;100339.78;4485336;31;20160;-76
2024/01/22 02:47:30;;;;;;;49.70;19.20;;;;;;;-6.10;100.00;100328.75;4485336;31;20096;-76
2024/01/22 02:49:57;;;;;;;44.85;18.85;;;;;;;-6.08;100.00;100339.81;4485162;31;20100;-76
2024/01/22 02:52:25;;;;;;;43.08;19.25;;;;;;;-6.10;100.00;100338.09;4485214;32;20141;-76
2024/01/22 02:54:53;;;;;;;49.80;19.70;;;;;;;-6.11;100.00;100333.84;4485287;31;20483;-76
2024/01/22 02:57:22;;;;;;;53.85;20.12;;;;;;;-6.09;100.00;100329.59;4485120;31;20100;-76
2024/01/22 02:59:50;;;;;;;46.03;20.17;;;;;;;-6.10;100.00;100331.31;4485182;31;20465;-76
2024/01/22 03:02:17;;;;;;;53.90;20.70;;;;;;;-6.12;100.00;100332.16;4485267;31;20473;-76
2024/01/22 03:04:45;;;;;;;46.58;18.70;;;;;;;-6.11;100.00;100319.41;4485161;31;20123;-76
2024/01/22 03:07:13;;;;;;;48.83;20.37;;;;;;;-6.03;100.00;100327.06;4485067;31;20088;-76
2024/01/22 03:09:41;;;;;;;55.60;20.98;;;;;;;-5.99;100.00;100313.50;4484980;31;20100;-76
2024/01/22 03:12:09;;;;;;;54.67;19.90;;;;;;;-6.03;100.00;100321.13;4485132;31;20093;-76
2024/01/22 03:14:36;;;;;;;43.10;18.05;;;;;;;-6.05;100.00;100313.47;4484840;31;20097;-76
2024/01/22 03:17:04;;;;;;;58.38;21.00;;;;;;;-5.89;100.00;100314.31;4485150;31;20096;-76
2024/01/22 03:19:31;;;;;;;43.97;19.15;;;;;;;-5.95;100.00;100310.06;4497331;31;20099;-76
2024/01/22 03:21:59;;;;;;;44.45;19.30;;;;;;;-5.99;100.00;100318.59;4501069;31;20106;-76
2024/01/22 03:24:27;;;;;;;55.70;21.30;;;;;;;-6.00;100.00;100316.88;4500884;31;20107;-76
2024/01/22 03:26:59;;;;;;;50.45;18.75;;;;;;;-6.05;100.00;100316.03;4501218;31;20154;-76
2024/01/22 03:29:27;;;;;;;55.42;19.85;;;;;;;-5.90;100.00;100300.72;4499804;31;20450;-76
2024/01/22 03:31:54;;;;;;;51.90;21.52;;;;;;;-5.87;100.00;100299.88;4485004;32;20111;-76
2024/01/22 03:34:22;;;;;;;57.03;21.67;;;;;;;-5.84;100.00;100301.56;4484826;31;20117;-76
2024/01/22 03:36:50;;;;;;;53.08;22.20;;;;;;;-5.95;100.00;100309.19;4485104;31;20521;-76
2024/01/22 03:39:18;;;;;;;52.40;18.87;;;;;;;-6.02;100.00;100308.37;4484766;31;20084;-76
2024/01/22 03:41:46;;;;;;;51.55;22.42;;;;;;;-5.93;100.00;100303.25;4485221;31;20088;-77
2024/01/22 03:44:13;;;;;;;58.22;22.55;;;;;;;-6.02;100.00;100295.63;4484757;31;20100;-76
2024/01/22 03:46:41;;;;;;;52.60;22.17;;;;;;;-6.06;100.00;100301.56;4484969;31;20818;-76
2024/01/22 03:49:08;;;;;;;48.03;21.23;;;;;;;-6.10;100.00;100299.81;4484848;31;20100;-76
2024/01/22 03:51:36;;;;;;;48.72;19.33;;;;;;;-6.03;100.00;100301.56;4484711;32;20131;-76
2024/01/22 03:54:04;;;;;;;45.90;19.73;;;;;;;-6.00;100.00;100306.66;4484771;31;20544;-76
2024/01/22 03:56:31;;;;;;;45.15;18.05;;;;;;;-5.96;100.00;100308.34;4484808;31;20471;-76
2024/01/22 03:58:59;;;;;;;46.58;18.85;;;;;;;-6.02;100.00;100294.78;4484850;31;20080;-76
2024/01/22 04:01:27;;;;;;;49.65;20.40;;;;;;;-6.02;100.00;100298.16;4485002;31;20088;-76
2024/01/22 04:03:55;;;;;;;58.03;21.37;;;;;;;-5.91;100.00;100299.00;4484732;31;20787;-76
2024/01/22 04:06:22;;;;;;;52.17;20.67;;;;;;;-5.96;100.00;100300.69;4484796;31;20689;-76
2024/01/22 04:08:50;;;;;;;58.70;22.33;;;;;;;-6.02;100.00;100307.53;4484671;31;20119;-76
2024/01/22 04:11:18;;;;;;;50.35;22.50;;;;;;;-6.06;100.00;100314.31;4484558;31;20189;-76
2024/01/22 04:13:46;;;;;;;48.08;21.42;;;;;;;-6.12;100.00;100306.62;4484730;31;20088;-76
2024/01/22 04:16:13;;;;;;;60.17;22.42;;;;;;;-6.07;100.00;100305.81;4484561;31;20159;-77
2024/01/22 04:18:42;;;;;;;62.80;23.23;;;;;;;-6.06;100.00;100296.44;4491351;31;20096;-76
2024/01/22 04:21:10;;;;;;;55.30;22.80;;;;;;;-6.09;100.00;100286.22;4500356;31;20147;-76
2024/01/22 04:23:38;;;;;;;62.13;20.67;;;;;;;-6.08;100.00;100278.59;4500425;31;20100;-76
2024/01/22 04:26:06;;;;;;;45.35;20.48;;;;;;;-6.06;100.00;100276.03;4499589;31;20118;-76
2024/01/22 04:28:33;;;;;;;59.67;22.83;;;;;;;-6.06;100.00;100276.03;4500079;31;20087;-76
2024/01/22 04:31:03;;;;;;;54.90;20.50;;;;;;;-6.12;100.00;100276.88;4488642;31;20095;-76
2024/01/22 04:33:31;;;;;;;54.30;21.75;;;;;;;-6.01;100.00;100283.69;4484596;31;20590;-76
2024/01/22 04:35:59;;;;;;;53.87;21.15;;;;;;;-6.04;100.00;100281.16;4484211;31;20092;-76
2024/01/22 04:38:26;;;;;;;44.45;19.17;;;;;;;-6.17;100.00;100278.56;4484388;31;20454;-76
2024/01/22 04:40:54;;;;;;;57.83;21.67;;;;;;;-6.15;100.00;100281.13;4484293;31;20484;-76
2024/01/22 04:43:22;;;;;;;54.72;21.73;;;;;;;-6.23;100.00;100277.69;4484375;31;20092;-76
2024/01/22 04:45:49;;;;;;;45.22;19.50;;;;;;;-6.37;100.00;100281.03;4484121;32;20168;-76
2024/01/22 04:48:17;;;;;;;60.17;21.73;;;;;;;-6.38;100.00;100283.59;4484284;31;20196;-76
2024/01/22 04:50:45;;;;;;;53.10;21.00;;;;;;;-6.44;100.00;100287.81;4484226;31;20119;-76
2024/01/22 04:53:12;;;;;;;58.60;20.40;;;;;;;-6.45;100.00;100285.25;4484160;31;20515;-76
2024/01/22 04:55:40;;;;;;;54.13;19.23;;;;;;;-6.38;100.00;100302.28;4483978;32;20088;-76
2024/01/22 04:58:08;;;;;;;46.70;19.42;;;;;;;-6.40;100.00;100296.34;4484200;32;20432;-76
2024/01/22 05:00:36;;;;;;;56.67;20.23;;;;;;;-6.34;100.00;100301.47;4484109;31;20088;-76
2024/01/22 05:03:04;;;;;;;49.80;21.10;;;;;;;-6.34;100.00;100303.12;4484197;31;20104;-76
2024/01/22 05:05:35;;;;;;;49.08;21.55;;;;;;;-6.40;100.00;100295.47;4484442;31;20427;-76
2024/01/22 05:08:03;;;;;;;49.00;21.67;;;;;;;-6.43;100.00;100296.31;4484040;31;20116;-76
2024/01/22 05:10:31;;;;;;;51.85;22.10;;;;;;;-6.37;100.00;100286.16;4483940;31;20438;-76
2024/01/22 05:13:01;;;;;;;47.72;19.02;;;;;;;-6.40;100.00;100285.25;4484005;31;20145;-76
2024/01/22 05:15:29;;;;;;;51.70;19.83;;;;;;;-6.43;100.00;100281.03;4484114;31;20092;-77
2024/01/22 05:17:57;;;;;;;45.55;19.58;;;;;;;-6.38;100.00;100289.53;4485531;31;20506;-77
2024/01/22 05:20:25;;;;;;;54.78;21.25;;;;;;;-6.40;100.00;100280.16;4499489;31;20506;-77
2024/01/22 05:22:53;;;;;;;52.62;21.27;;;;;;;-6.38;100.00;100279.34;4499673;31;20152;-76
2024/01/22 05:25:22;;;;;;;55.10;18.45;;;;;;;-6.30;100.00;100270.03;4499457;31;20100;-76
2024/01/22 05:27:49;;;;;;;56.47;21.87;;;;;;;-6.18;100.00;100265.81;4499573;31;20088;-77
2024/01/22 05:30:17;;;;;;;54.47;19.85;;;;;;;-6.31;100.00;100270.87;4492926;31;20080;-77
2024/01/22 05:32:45;;;;;;;39.95;17.95;;;;;;;-6.09;100.00;100260.72;4483671;31;20092;-77
2024/01/22 05:35:15;;;;;;;41.40;17.55;;;;;;;-5.90;100.00;100252.25;4482164;32;20450;-77
2024/01/22 05:37:42;;;;;;;48.17;19.00;;;;;;;-5.94;100.00;100257.34;4484368;31;20095;-76
2024/01/22 05:40:10;;;;;;;47.15;18.52;;;;;;;-6.10;100.00;100246.25;4485935;31;20137;-78
2024/01/22 05:42:38;;;;;;;37.95;17.70;;;;;;;-6.03;100.00;100247.16;4484343;32;20093;-76
2024/01/22 05:45:06;;;;;;;49.13;20.60;;;;;;;-6.16;100.00;100249.66;4486039;31;20080;-76
2024/01/22 05:47:34;;;;;;;49.55;20.35;;;;;;;-6.19;100.00;100256.44;4486064;31;20088;-78
2024/01/22 05:50:01;;;;;;;56.63;21.33;;;;;;;-6.16;100.00;100246.25;4485701;31;20391;-78
2024/01/22 05:52:30;;;;;;;49.03;20.75;;;;;;;-6.27;100.00;100257.28;4485821;31;20089;-78
2024/01/22 05:54:58;;;;;;;53.72;21.67;;;;;;;-6.16;100.00;100249.66;4485644;31;20165;-77
2024/01/22 05:57:25;;;;;;;55.65;19.92;;;;;;;-6.23;100.00;100249.66;4485814;31;20165;-77
2024/01/22 05:59:53;;;;;;;49.95;17.20;;;;;;;-6.18;100.00;100247.94;4485711;31;20195;-79
2024/01/22 06:02:21;;;;;;;37.50;16.52;;;;;;;-6.14;100.00;100236.91;4485480;31;20146;-78
2024/01/22 06:04:49;;;;;;;45.80;19.40;;;;;;;-6.07;100.00;100238.59;4485441;31;20088;-78
2024/01/22 06:07:17;;;;;;;38.42;15.98;;;;;;;-6.14;100.00;100253.06;4485261;31;20132;-76
2024/01/22 06:09:44;;;;;;;41.42;18.23;;;;;;;-6.10;100.00;100251.34;4494676;31;20534;-76
2024/01/22 06:12:22;;;;;;;45.47;20.08;;;;;;;-6.11;100.00;100252.22;4499895;31;20091;-77
2024/01/22 06:14:50;;;;;;;46.20;18.20;;;;;;;-6.21;100.00;100251.34;4500787;31;20121;-77
2024/01/22 06:17:17;;;;;;;42.42;17.83;;;;;;;-6.25;100.00;100245.38;4501136;31;20158;-76
2024/01/22 06:19:45;;;;;;;48.83;21.12;;;;;;;-6.16;100.00;100238.59;4487531;31;20427;-76
2024/01/22 06:22:14;;;;;;;36.97;15.77;;;;;;;-6.19;100.00;100230.94;4485380;32;20156;-76
2024/01/22 06:24:41;;;;;;;63.87;22.90;;;;;;;-6.20;100.00;100236.91;4486367;31;20100;-76
2024/01/22 06:27:09;;;;;;;55.40;18.70;;;;;;;-6.19;100.00;100243.69;4485309;31;20103;-76
2024/01/22 06:29:38;;;;;;;49.67;21.23;;;;;;;-6.27;100.00;100247.09;4489101;31;20501;-76
2024/01/22 06:32:07;;;;;;;41.33;16.65;;;;;;;-6.14;100.00;100242.03;4485340;31;20096;-76
2024/01/22 06:34:35;;;;;;;46.37;19.45;;;;;;;-6.06;100.00;100245.44;4484174;31;33919;-78
2024/01/22 06:37:04;;;;;;;59.40;20.40;;;;;;;-6.03;100.00;100242.88;4490897;31;20092;-79
2024/01/22 06:39:32;;;;;;;40.38;19.12;;;;;;;-6.10;100.00;100243.72;4492117;31;20603;-78
2024/01/22 06:42:00;;;;;;;69.40;22.27;;;;;;;-6.02;100.00;100242.03;4485494;31;20491;-78
2024/01/22 06:44:28;;;;;;;61.42;21.73;;;;;;;-6.08;100.00;100253.06;4485411;31;20480;-77
2024/01/22 06:46:55;;;;;;;63.17;22.10;;;;;;;-6.10;100.00;100256.47;4491434;31;20121;-77
2024/01/22 06:49:23;;;;;;;49.85;20.62;;;;;;;-6.17;100.00;100259.88;4493067;31;20116;-76
2024/01/22 06:51:51;;;;;;;49.78;16.60;;;;;;;-6.06;100.00;100258.19;4484527;31;20124;-74
2024/01/22 06:54:19;;;;;;;44.20;17.12;;;;;;;-5.96;100.00;100270.09;4493003;31;20099;-73
2024/01/22 06:56:51;;;;;;;62.65;20.73;;;;;;;-5.81;100.00;100263.28;4492013;31;20163;-74
2024/01/22 06:59:19;;;;;;;49.53;17.00;;;;;;;-5.82;100.00;100259.91;4493696;31;20118;-74
2024/01/22 07:01:46;;;;;;;63.63;17.75;;;;;;;-5.98;100.00;100259.06;4492651;31;20105;-74
2024/01/22 07:04:15;;;;;;;50.40;19.30;;;;;;;-6.05;100.00;100252.25;4489783;31;20103;-75
2024/01/22 07:06:42;;;;;;;53.87;17.12;;;;;;;-5.82;100.00;100266.72;4488239;31;20095;-74
2024/01/22 07:09:10;;;;;;;48.08;18.62;;;;;;;-5.86;100.00;100267.56;4491458;31;20110;-74
2024/01/22 07:11:38;;;;;;;67.62;21.35;;;;;;;-5.65;100.00;100267.56;4490589;31;20108;-74
2024/01/22 07:14:06;;;;;;;59.70;21.15;;;;;;;-5.68;100.00;100272.69;4498923;31;20114;-73
2024/01/22 07:16:35;;;;;;;59.45;22.90;;;;;;;-5.63;100.00;100271.00;4489950;31;20122;-74
2024/01/22 07:19:03;;;;;;;67.22;22.35;;;;;;;-5.78;100.00;100265.88;4490159;31;20487;-73
2024/01/22 07:21:33;;;;;;;43.70;19.92;;;;;;;-5.86;100.00;100265.84;4499556;31;20811;-73
2024/01/22 07:24:00;;;;;;;66.05;22.70;;;;;;;-5.88;100.00;100273.50;4495623;31;20143;-73
2024/01/22 07:26:28;;;;;;;44.00;17.95;;;;;;;-5.92;100.00;100269.25;4496665;31;20113;-73
2024/01/22 07:28:56;;;;;;;52.45;21.20;;;;;;;-5.81;100.00;100278.59;4493884;31;20096;-74
2024/01/22 07:31:24;;;;;;;62.58;19.98;;;;;;;-5.73;100.00;100280.31;4499662;31;20208;-74
2024/01/22 07:33:54;;;;;;;61.92;23.38;;;;;;;-5.71;100.00;100285.44;4495179;31;20119;-73
2024/01/22 07:36:22;;;;;;;65.12;21.05;;;;;;;-5.54;100.00;100278.66;4484719;32;20089;-74
2024/01/22 07:38:54;;;;;;;39.42;18.08;;;;;;;-5.48;100.00;100284.63;4494206;31;20092;-74
2024/01/22 07:41:22;;;;;;;63.92;20.40;;;;;;;-5.51;100.00;100285.47;4495990;31;20085;-74
2024/01/22 07:43:49;;;;;;;63.65;21.80;;;;;;;-5.56;100.00;100282.91;4483320;32;20108;-74
2024/01/22 07:46:19;;;;;;;60.03;20.15;;;;;;;-5.61;100.00;100284.59;4484688;31;20109;-76
2024/01/22 07:48:47;;;;;;;52.17;19.10;;;;;;;-5.73;100.00;100282.88;4490819;31;20398;-74
2024/01/22 07:51:16;;;;;;;53.30;20.98;;;;;;;-5.57;100.00;100288.88;4485328;31;20169;-72
2024/01/22 07:53:44;;;;;;;47.62;21.48;;;;;;;-5.46;100.00;100293.16;4484244;31;20155;-73
2024/01/22 07:56:12;;;;;;;38.65;17.90;;;;;;;-5.21;100.00;100283.75;4496854;31;20097;-73
2024/01/22 07:58:40;;;;;;;49.17;20.83;;;;;;;-4.97;100.00;100282.91;4495213;31;20088;-74
2024/01/22 08:01:08;;;;;;;58.60;22.45;;;;;;;-4.99;100.00;100284.59;4483007;31;20434;-74
2024/01/22 08:03:36;;;;;;;42.03;17.60;;;;;;;-4.83;100.00;100276.06;4485188;31;20492;-73
2024/01/22 08:06:04;;;;;;;54.38;23.48;;;;;;;-4.88;100.00;100272.66;4494053;31;20456;-73
2024/01/22 08:08:31;;;;;;;42.08;16.92;;;;;;;-5.01;100.00;100278.63;4499402;31;20131;-72
2024/01/22 08:10:59;;;;;;;36.40;19.65;;;;;;;-4.73;100.00;100282.00;4496616;31;20092;-73
2024/01/22 08:13:27;;;;;;;53.75;21.98;;;;;;;-4.82;100.00;100282.84;4500104;31;20110;-72
2024/01/22 08:15:55;;;;;;;51.63;21.05;;;;;;;-4.74;100.00;100285.44;4487733;31;20087;-72
2024/01/22 08:18:23;;;;;;;49.40;20.25;;;;;;;-4.63;100.00;100285.41;4490786;31;20789;-72
2024/01/22 08:20:50;;;;;;;55.12;23.10;;;;;;;-4.74;100.00;100293.09;4490973;31;20100;-72
2024/01/22 08:23:18;;;;;;;49.53;20.40;;;;;;;-4.58;100.00;100288.78;4485862;31;20115;-72
2024/01/22 08:25:47;;;;;;;40.40;17.05;;;;;;;-4.58;100.00;100272.59;4497839;31;20434;-72
2024/01/22 08:28:14;;;;;;;56.70;23.25;;;;;;;-4.41;100.00;100273.38;4497876;31;20134;-71
2024/01/22 08:30:41;;;;;;;48.20;19.20;;;;;;;-4.50;100.00;100269.12;4491154;31;20131;-71
2024/01/22 08:33:09;;;;;;;38.08;16.25;;;;;;;-4.28;100.00;100269.06;4496685;31;20118;-73
2024/01/22 08:35:36;;;;;;;34.35;16.35;;;;;;;-4.13;100.00;100274.13;4493287;31;20095;-72
2024/01/22 08:38:04;;;;;;;49.33;20.30;;;;;;;-4.02;100.00;100265.53;4496406;31;20126;-71
2024/01/22 08:40:31;;;;;;;49.35;21.58;;;;;;;-3.90;100.00;100272.28;4488696;31;20096;-72
2024/01/22 08:42:58;;;;;;;51.15;21.80;;;;;;;-3.76;100.00;100279.00;4486678;31;20375;-74
2024/01/22 08:45:25;;;;;;;53.03;20.90;;;;;;;-3.57;100.00;100278.91;4487740;31;20465;-73
2024/01/22 08:47:53;;;;;;;46.60;19.35;;;;;;;-3.59;100.00;100290.84;4489233;31;20547;-72
2024/01/22 08:50:23;;;;;;;43.17;20.00;;;;;;;-3.47;100.00;100288.22;4486437;31;20092;-73
2024/01/22 08:52:54;;;;;;;58.95;23.12;;;;;;;-3.26;100.00;100294.03;4492453;31;20840;-73
2024/01/22 08:55:23;;;;;;;42.70;18.62;;;;;;;-3.11;100.00;100288.78;4497303;31;20574;-73
2024/01/22 08:57:53;;;;;;;51.63;20.12;;;;;;;-2.99;100.00;100282.69;4494451;31;20472;-73
2024/01/22 09:00:21;;;;;;;41.15;17.50;;;;;;;-3.03;100.00;100281.88;4484106;31;20708;-74
2024/01/22 09:02:49;;;;;;;49.92;20.92;;;;;;;-2.99;100.00;100275.00;4492051;31;20116;-73
2024/01/22 09:05:19;;;;;;;51.17;18.62;;;;;;;-2.95;100.00;100273.25;4493377;31;20096;-73
2024/01/22 09:07:48;;;;;;;46.37;21.05;;;;;;;-2.99;100.00;100274.16;4492557;31;20100;-72
2024/01/22 09:10:16;;;;;;;50.20;21.10;;;;;;;-3.02;100.00;100272.47;4493763;31;20410;-73
2024/01/22 09:12:44;;;;;;;49.97;22.20;;;;;;;-2.87;100.00;100264.63;4491221;31;20209;-74
2024/01/22 09:15:23;;;;;;;45.60;16.75;;;;;;;-2.86;100.00;100255.25;4492976;31;20160;-73
2024/01/22 09:17:52;;;;;;;38.28;14.13;;;;;;;-2.71;100.00;100252.50;4495237;31;20087;-72
2024/01/22 09:20:24;;;;;;;45.47;19.02;;;;;;;-2.84;100.00;100266.31;4493108;31;20100;-74
2024/01/22 09:22:52;;;;;;;48.47;19.83;;;;;;;-2.82;100.00;100258.59;4495037;31;20118;-75
2024/01/22 09:25:21;;;;;;;41.13;17.52;;;;;;;-2.57;100.00;100254.06;4493475;31;20438;-76
2024/01/22 09:27:50;;;;;;;42.55;19.92;;;;;;;-2.60;100.00;100239.56;4489307;31;20159;-74
2024/01/22 09:30:18;;;;;;;44.72;20.85;;;;;;;-2.59;100.00;100240.37;4491784;31;20133;-75
2024/01/22 09:32:47;;;;;;;39.55;17.25;;;;;;;-2.46;100.00;100236.81;4491085;31;20084;-73
2024/01/22 09:35:19;;;;;;;43.58;17.60;;;;;;;-2.44;100.00;100222.25;4490460;31;20095;-77
2024/01/22 09:37:49;;;;;;;52.30;21.35;;;;;;;-2.34;100.00;100233.25;4490131;31;20144;-74
2024/01/22 09:40:18;;;;;;;39.17;16.83;;;;;;;-2.29;100.00;100231.47;4493516;31;20469;-74
2024/01/22 09:43:03;;;;;;;55.22;20.60;;;;;;;-2.25;100.00;100232.28;4490239;31;20100;-74
2024/01/22 09:45:34;;;;;;;54.60;20.90;;;;;;;-1.98;100.00;100224.19;4490864;31;20167;-74
2024/01/22 09:48:01;;;;;;;41.17;16.45;;;;;;;-2.07;100.00;100220.94;4490235;31;20492;-74
2024/01/22 09:50:29;;;;;;;41.72;18.95;;;;;;;-2.21;100.00;100210.81;4494743;31;20157;-73
2024/01/22 09:53:10;;;;;;;44.30;18.83;;;;;;;-2.07;100.00;100206.34;4495423;31;20575;-73
2024/01/22 09:55:39;;;;;;;44.17;20.02;;;;;;;-1.98;100.00;100195.94;4490933;31;20122;-72
2024/01/22 09:58:09;;;;;;;31.23;14.18;;;;;;;-2.16;100.00;100183.37;4487064;31;20571;-73
2024/01/22 10:00:42;;;;;;;38.33;17.73;;;;;;;-2.16;100.00;100185.94;4495283;31;20838;-72
2024/01/22 10:03:10;;;;;;;40.65;17.85;;;;;;;-2.16;100.00;100168.81;4493112;31;20104;-73
2024/01/22 10:05:41;;;;;;;50.55;19.98;;;;;;;-1.97;100.00;100164.28;4488507;31;20128;-73
2024/01/22 10:08:09;;;;;;;52.30;21.05;;;;;;;-1.93;100.00;100171.94;4489429;31;20092;-72
2024/01/22 10:10:37;;;;;;;37.67;17.37;;;;;;;-2.11;100.00;100155.06;4494461;31;20149;-73
2024/01/22 10:13:07;;;;;;;35.92;14.82;;;;;;;-2.21;100.00;100156.91;4490759;31;20088;-73
2024/01/22 10:15:36;;;;;;;44.08;19.62;;;;;;;-2.17;100.00;100156.00;4490112;31;20160;-74
2024/01/22 10:18:07;;;;;;;48.83;18.62;;;;;;;-2.07;100.00;100149.03;4493629;31;20438;-73
2024/01/22 10:20:36;;;;;;;46.40;19.60;;;;;;;-1.87;100.00;100148.72;4491437;31;20505;-73
2024/01/22 10:23:04;;;;;;;51.80;18.70;;;;;;;-1.96;100.00;100147.97;4491177;31;20511;-72
2024/01/22 10:25:32;;;;;;;41.17;16.67;;;;;;;-1.99;100.00;100145.44;4496084;31;20453;-72
2024/01/22 10:28:14;;;;;;;38.10;17.98;;;;;;;-1.93;100.00;100148.81;4493331;31;20092;-72
2024/01/22 10:31:03;;;;;;;39.25;16.15;;;;;;;-1.85;100.00;100146.97;4490442;31;20151;-73
2024/01/22 10:33:31;;;;;;;46.83;19.62;;;;;;;-1.73;100.00;100148.47;4495172;31;20432;-73
2024/01/22 10:36:13;;;;;;;43.13;16.30;;;;;;;-1.71;100.00;100144.16;4498453;31;20096;-73
2024/01/22 10:38:41;;;;;;;45.80;17.77;;;;;;;-1.87;100.00;100136.72;4491261;31;20540;-73
2024/01/22 10:41:22;;;;;;;39.03;16.33;;;;;;;-1.76;100.00;100135.69;4498218;31;20119;-72
2024/01/22 10:43:49;;;;;;;43.20;16.58;;;;;;;-1.88;100.00;100123.91;4490990;31;20164;-72
2024/01/22 10:46:19;;;;;;;51.25;21.52;;;;;;;-2.02;100.00;100113.84;4487962;31;20163;-72
2024/01/22 10:48:46;;;;;;;42.22;18.87;;;;;;;-2.01;100.00;100106.13;4492407;31;20092;-72
2024/01/22 10:51:18;;;;;;;40.20;18.12;;;;;;;-2.00;100.00;100094.13;4485747;31;20153;-72
2024/01/22 10:53:47;;;;;;;48.75;19.98;;;;;;;-1.90;100.00;100077.69;4485748;31;20172;-71
2024/01/22 10:56:22;;;;;;;39.92;17.92;;;;;;;-2.02;100.00;100070.19;4495044;31;20126;-73
2024/01/22 10:58:51;;;;;;;41.72;19.90;;;;;;;-2.05;100.00;100057.41;4486985;31;20104;-74
2024/01/22 11:01:24;;;;;;;50.63;20.85;;;;;;;-1.87;100.00;100057.09;4491621;31;20467;-72
2024/01/22 11:03:55;;;;;;;49.38;20.70;;;;;;;-1.62;100.00;100056.63;4494742;31;20092;-75
2024/01/22 11:06:27;;;;;;;36.60;17.85;;;;;;;-1.56;100.00;100053.13;4484705;31;20480;-74
2024/01/22 11:08:56;;;;;;;46.72;18.80;;;;;;;-1.34;100.00;100051.81;4485525;31;20099;-73